sensor_id;sensor_type;location;lat;lon;timestamp;P1;durP1;ratioP1;P2;durP2;ratioP2
47367;SDS011;34646;47.964;7.982;2024-03-29T00:03:17;1.33;;;0.50;;
47367;SDS011;34646;47.964;7.982;2024-03-29T00:09:19;3.33;;;0.57;;
47367;SDS011;34646;47.964;7.982;2024-03-29T00:15:20;2.22;;;0.68;;
47367;SDS011;34646;47.964;7.982;2024-03-29T00:21:21;1.48;;;0.57;;
47367;SDS011;34646;47.964;7.982;2024-03-29T00:27:22;3.00;;;0.70;;
47367;SDS011;34646;47.964;7.982;2024-03-29T00:33:25;1.25;;;0.60;;
47367;SDS011;34646;47.964;7.982;2024-03-29T00:39:26;1.48;;;0.60;;
47367;SDS011;34646;47.964;7.982;2024-03-29T00:45:27;1.02;;;0.47;;
47367;SDS011;34646;47.964;7.982;2024-03-29T00:51:29;3.70;;;0.63;;
47367;SDS011;34646;47.964;7.982;2024-03-29T00:57:30;1.23;;;0.50;;
47367;SDS011;34646;47.964;7.982;2024-03-29T01:03:31;1.05;;;0.50;;
47367;SDS011;34646;47.964;7.982;2024-03-29T01:09:32;1.67;;;0.77;;
47367;SDS011;34646;47.964;7.982;2024-03-29T01:15:33;1.05;;;0.30;;
47367;SDS011;34646;47.964;7.982;2024-03-29T01:21:34;2.93;;;0.60;;
47367;SDS011;34646;47.964;7.982;2024-03-29T01:27:35;1.95;;;0.65;;
47367;SDS011;34646;47.964;7.982;2024-03-29T01:33:36;0.95;;;0.50;;
47367;SDS011;34646;47.964;7.982;2024-03-29T01:39:38;0.60;;;0.40;;
47367;SDS011;34646;47.964;7.982;2024-03-29T01:45:39;1.37;;;0.60;;
47367;SDS011;34646;47.964;7.982;2024-03-29T01:51:40;1.27;;;0.40;;
47367;SDS011;34646;47.964;7.982;2024-03-29T01:57:41;1.35;;;0.60;;
47367;SDS011;34646;47.964;7.982;2024-03-29T02:03:43;2.47;;;0.88;;
47367;SDS011;34646;47.964;7.982;2024-03-29T02:09:43;0.97;;;0.57;;
47367;SDS011;34646;47.964;7.982;2024-03-29T02:15:44;1.63;;;0.40;;
47367;SDS011;34646;47.964;7.982;2024-03-29T02:21:46;0.60;;;0.40;;
47367;SDS011;34646;47.964;7.982;2024-03-29T02:27:50;1.75;;;0.32;;
47367;SDS011;34646;47.964;7.982;2024-03-29T02:33:51;2.95;;;0.80;;
47367;SDS011;34646;47.964;7.982;2024-03-29T02:39:52;1.38;;;0.68;;
47367;SDS011;34646;47.964;7.982;2024-03-29T02:45:54;1.27;;;0.40;;
47367;SDS011;34646;47.964;7.982;2024-03-29T02:51:55;1.33;;;0.50;;
47367;SDS011;34646;47.964;7.982;2024-03-29T02:57:56;0.93;;;0.50;;
47367;SDS011;34646;47.964;7.982;2024-03-29T03:03:57;0.93;;;0.40;;
47367;SDS011;34646;47.964;7.982;2024-03-29T03:09:58;1.00;;;0.40;;
47367;SDS011;34646;47.964;7.982;2024-03-29T03:16:18;0.60;;;0.32;;
47367;SDS011;34646;47.964;7.982;2024-03-29T03:22:19;1.30;;;0.52;;
47367;SDS011;34646;47.964;7.982;2024-03-29T03:28:20;2.05;;;0.52;;
47367;SDS011;34646;47.964;7.982;2024-03-29T03:34:21;1.23;;;0.40;;
47367;SDS011;34646;47.964;7.982;2024-03-29T03:40:22;1.67;;;0.73;;
47367;SDS011;34646;47.964;7.982;2024-03-29T03:46:24;0.60;;;0.38;;
47367;SDS011;34646;47.964;7.982;2024-03-29T03:52:24;1.10;;;0.50;;
47367;SDS011;34646;47.964;7.982;2024-03-29T03:58:25;1.93;;;0.50;;
47367;SDS011;34646;47.964;7.982;2024-03-29T04:04:26;0.57;;;0.33;;
47367;SDS011;34646;47.964;7.982;2024-03-29T04:10:27;1.70;;;0.50;;
47367;SDS011;34646;47.964;7.982;2024-03-29T04:16:29;0.67;;;0.40;;
47367;SDS011;34646;47.964;7.982;2024-03-29T04:22:30;1.33;;;0.60;;
47367;SDS011;34646;47.964;7.982;2024-03-29T04:28:31;1.40;;;0.43;;
47367;SDS011;34646;47.964;7.982;2024-03-29T04:34:33;1.60;;;0.60;;
47367;SDS011;34646;47.964;7.982;2024-03-29T04:40:34;1.00;;;0.50;;
47367;SDS011;34646;47.964;7.982;2024-03-29T04:46:35;1.40;;;0.50;;
47367;SDS011;34646;47.964;7.982;2024-03-29T04:52:36;1.55;;;0.60;;
47367;SDS011;34646;47.964;7.982;2024-03-29T04:58:37;0.80;;;0.40;;
47367;SDS011;34646;47.964;7.982;2024-03-29T05:04:38;1.67;;;0.40;;
47367;SDS011;34646;47.964;7.982;2024-03-29T05:10:39;0.90;;;0.40;;
47367;SDS011;34646;47.964;7.982;2024-03-29T05:16:40;3.00;;;0.32;;
47367;SDS011;34646;47.964;7.982;2024-03-29T05:22:41;0.47;;;0.30;;
47367;SDS011;34646;47.964;7.982;2024-03-29T05:28:42;0.97;;;0.50;;
47367;SDS011;34646;47.964;7.982;2024-03-29T05:34:43;0.82;;;0.38;;
47367;SDS011;34646;47.964;7.982;2024-03-29T05:40:44;0.85;;;0.40;;
47367;SDS011;34646;47.964;7.982;2024-03-29T05:46:47;0.80;;;0.40;;
47367;SDS011;34646;47.964;7.982;2024-03-29T05:52:48;0.60;;;0.40;;
47367;SDS011;34646;47.964;7.982;2024-03-29T05:58:49;0.40;;;0.25;;
47367;SDS011;34646;47.964;7.982;2024-03-29T06:04:50;1.00;;;0.50;;
47367;SDS011;34646;47.964;7.982;2024-03-29T06:10:51;0.57;;;0.33;;
47367;SDS011;34646;47.964;7.982;2024-03-29T06:16:52;1.40;;;0.50;;
47367;SDS011;34646;47.964;7.982;2024-03-29T06:23:12;0.80;;;0.50;;
47367;SDS011;34646;47.964;7.982;2024-03-29T06:29:14;0.80;;;0.47;;
47367;SDS011;34646;47.964;7.982;2024-03-29T06:35:15;0.88;;;0.50;;
47367;SDS011;34646;47.964;7.982;2024-03-29T06:41:17;0.90;;;0.40;;
47367;SDS011;34646;47.964;7.982;2024-03-29T06:47:18;0.55;;;0.30;;
47367;SDS011;34646;47.964;7.982;2024-03-29T06:53:19;1.03;;;0.40;;
47367;SDS011;34646;47.964;7.982;2024-03-29T06:59:20;0.93;;;0.30;;
47367;SDS011;34646;47.964;7.982;2024-03-29T07:05:21;0.43;;;0.28;;
47367;SDS011;34646;47.964;7.982;2024-03-29T07:11:23;1.15;;;0.40;;
47367;SDS011;34646;47.964;7.982;2024-03-29T07:17:24;1.60;;;0.43;;
47367;SDS011;34646;47.964;7.982;2024-03-29T07:23:25;1.20;;;0.40;;
47367;SDS011;34646;47.964;7.982;2024-03-29T07:29:26;2.03;;;0.50;;
47367;SDS011;34646;47.964;7.982;2024-03-29T07:35:27;10.07;;;0.70;;
47367;SDS011;34646;47.964;7.982;2024-03-29T07:41:28;1.85;;;0.60;;
47367;SDS011;34646;47.964;7.982;2024-03-29T07:47:29;2.67;;;0.47;;
47367;SDS011;34646;47.964;7.982;2024-03-29T07:53:30;3.87;;;0.50;;
47367;SDS011;34646;47.964;7.982;2024-03-29T07:59:31;1.03;;;0.47;;
47367;SDS011;34646;47.964;7.982;2024-03-29T08:05:32;2.73;;;0.40;;
47367;SDS011;34646;47.964;7.982;2024-03-29T08:17:34;2.63;;;0.40;;
47367;SDS011;34646;47.964;7.982;2024-03-29T08:23:37;3.25;;;0.35;;
47367;SDS011;34646;47.964;7.982;2024-03-29T08:29:44;1.63;;;0.40;;
47367;SDS011;34646;47.964;7.982;2024-03-29T08:35:44;4.63;;;0.40;;
47367;SDS011;34646;47.964;7.982;2024-03-29T08:41:46;2.13;;;0.45;;
47367;SDS011;34646;47.964;7.982;2024-03-29T08:47:47;1.67;;;0.40;;
47367;SDS011;34646;47.964;7.982;2024-03-29T08:53:48;1.48;;;0.50;;
47367;SDS011;34646;47.964;7.982;2024-03-29T08:59:48;1.03;;;0.33;;
47367;SDS011;34646;47.964;7.982;2024-03-29T09:05:50;6.70;;;0.70;;
47367;SDS011;34646;47.964;7.982;2024-03-29T09:11:51;3.03;;;0.30;;
47367;SDS011;34646;47.964;7.982;2024-03-29T09:17:52;2.63;;;0.40;;
47367;SDS011;34646;47.964;7.982;2024-03-29T09:23:55;5.63;;;0.70;;
47367;SDS011;34646;47.964;7.982;2024-03-29T09:29:56;3.20;;;0.63;;
47367;SDS011;34646;47.964;7.982;2024-03-29T09:35:57;3.70;;;0.40;;
47367;SDS011;34646;47.964;7.982;2024-03-29T09:41:58;3.50;;;0.50;;
47367;SDS011;34646;47.964;7.982;2024-03-29T09:48:03;7.45;;;0.77;;
47367;SDS011;34646;47.964;7.982;2024-03-29T09:54:04;9.35;;;1.30;;
47367;SDS011;34646;47.964;7.982;2024-03-29T10:00:08;8.55;;;0.63;;
47367;SDS011;34646;47.964;7.982;2024-03-29T10:06:09;7.03;;;0.80;;
47367;SDS011;34646;47.964;7.982;2024-03-29T10:12:12;10.02;;;0.80;;
47367;SDS011;34646;47.964;7.982;2024-03-29T10:18:14;7.30;;;0.97;;
47367;SDS011;34646;47.964;7.982;2024-03-29T10:24:15;6.95;;;0.50;;
47367;SDS011;34646;47.964;7.982;2024-03-29T10:30:19;8.43;;;1.00;;
47367;SDS011;34646;47.964;7.982;2024-03-29T10:36:21;6.57;;;0.98;;
47367;SDS011;34646;47.964;7.982;2024-03-29T10:42:22;4.45;;;0.75;;
47367;SDS011;34646;47.964;7.982;2024-03-29T10:48:25;7.63;;;0.90;;
47367;SDS011;34646;47.964;7.982;2024-03-29T10:54:27;9.98;;;1.13;;
47367;SDS011;34646;47.964;7.982;2024-03-29T11:00:29;3.03;;;0.60;;
47367;SDS011;34646;47.964;7.982;2024-03-29T11:06:39;4.15;;;0.52;;
47367;SDS011;34646;47.964;7.982;2024-03-29T11:12:44;3.45;;;0.63;;
47367;SDS011;34646;47.964;7.982;2024-03-29T11:18:50;2.50;;;0.47;;
47367;SDS011;34646;47.964;7.982;2024-03-29T11:24:52;5.50;;;0.90;;
47367;SDS011;34646;47.964;7.982;2024-03-29T11:30:53;6.40;;;0.70;;
47367;SDS011;34646;47.964;7.982;2024-03-29T11:37:05;3.83;;;0.68;;
47367;SDS011;34646;47.964;7.982;2024-03-29T11:43:07;4.57;;;0.60;;
47367;SDS011;34646;47.964;7.982;2024-03-29T11:49:08;10.95;;;0.73;;
47367;SDS011;34646;47.964;7.982;2024-03-29T11:55:10;1.83;;;0.70;;
47367;SDS011;34646;47.964;7.982;2024-03-29T12:01:11;3.93;;;0.57;;
47367;SDS011;34646;47.964;7.982;2024-03-29T12:07:14;5.82;;;0.82;;
47367;SDS011;34646;47.964;7.982;2024-03-29T12:13:16;9.43;;;0.75;;
47367;SDS011;34646;47.964;7.982;2024-03-29T12:19:23;6.07;;;0.77;;
47367;SDS011;34646;47.964;7.982;2024-03-29T12:25:25;6.45;;;0.90;;
47367;SDS011;34646;47.964;7.982;2024-03-29T12:31:26;5.68;;;0.68;;
47367;SDS011;34646;47.964;7.982;2024-03-29T12:37:27;10.17;;;1.00;;
47367;SDS011;34646;47.964;7.982;2024-03-29T12:43:28;9.52;;;0.90;;
47367;SDS011;34646;47.964;7.982;2024-03-29T12:49:29;4.13;;;1.03;;
47367;SDS011;34646;47.964;7.982;2024-03-29T12:55:30;11.50;;;1.20;;
47367;SDS011;34646;47.964;7.982;2024-03-29T13:01:35;9.27;;;0.82;;
47367;SDS011;34646;47.964;7.982;2024-03-29T13:07:38;8.23;;;1.10;;
47367;SDS011;34646;47.964;7.982;2024-03-29T13:13:39;5.00;;;1.63;;
47367;SDS011;34646;47.964;7.982;2024-03-29T13:19:40;3.58;;;0.70;;
47367;SDS011;34646;47.964;7.982;2024-03-29T13:25:42;8.00;;;0.80;;
47367;SDS011;34646;47.964;7.982;2024-03-29T13:31:43;6.07;;;1.00;;
47367;SDS011;34646;47.964;7.982;2024-03-29T13:37:44;6.35;;;0.98;;
47367;SDS011;34646;47.964;7.982;2024-03-29T13:43:46;5.00;;;0.82;;
47367;SDS011;34646;47.964;7.982;2024-03-29T13:49:47;4.80;;;0.80;;
47367;SDS011;34646;47.964;7.982;2024-03-29T13:55:52;10.77;;;1.65;;
47367;SDS011;34646;47.964;7.982;2024-03-29T14:01:54;6.90;;;1.33;;
47367;SDS011;34646;47.964;7.982;2024-03-29T14:07:55;6.20;;;1.00;;
47367;SDS011;34646;47.964;7.982;2024-03-29T14:13:56;7.72;;;0.90;;
47367;SDS011;34646;47.964;7.982;2024-03-29T14:19:57;7.75;;;0.93;;
47367;SDS011;34646;47.964;7.982;2024-03-29T14:25:59;2.90;;;0.80;;
47367;SDS011;34646;47.964;7.982;2024-03-29T14:38:01;7.27;;;1.13;;
47367;SDS011;34646;47.964;7.982;2024-03-29T14:44:03;7.95;;;1.38;;
47367;SDS011;34646;47.964;7.982;2024-03-29T14:50:04;4.50;;;0.75;;
47367;SDS011;34646;47.964;7.982;2024-03-29T14:56:07;6.32;;;1.33;;
47367;SDS011;34646;47.964;7.982;2024-03-29T15:02:09;5.07;;;1.20;;
47367;SDS011;34646;47.964;7.982;2024-03-29T15:08:10;2.42;;;1.15;;
47367;SDS011;34646;47.964;7.982;2024-03-29T15:14:16;1.98;;;0.70;;
47367;SDS011;34646;47.964;7.982;2024-03-29T15:20:17;7.97;;;0.90;;
47367;SDS011;34646;47.964;7.982;2024-03-29T15:26:19;4.47;;;1.00;;
47367;SDS011;34646;47.964;7.982;2024-03-29T15:32:22;3.17;;;0.80;;
47367;SDS011;34646;47.964;7.982;2024-03-29T15:38:26;3.58;;;0.85;;
47367;SDS011;34646;47.964;7.982;2024-03-29T15:44:30;2.45;;;0.80;;
47367;SDS011;34646;47.964;7.982;2024-03-29T15:50:31;3.15;;;0.82;;
47367;SDS011;34646;47.964;7.982;2024-03-29T15:56:32;2.08;;;0.65;;
47367;SDS011;34646;47.964;7.982;2024-03-29T16:02:37;3.78;;;0.90;;
47367;SDS011;34646;47.964;7.982;2024-03-29T16:08:46;2.70;;;0.85;;
47367;SDS011;34646;47.964;7.982;2024-03-29T16:14:47;2.38;;;0.98;;
47367;SDS011;34646;47.964;7.982;2024-03-29T16:20:48;2.20;;;0.90;;
47367;SDS011;34646;47.964;7.982;2024-03-29T16:26:49;3.35;;;0.80;;
47367;SDS011;34646;47.964;7.982;2024-03-29T16:32:50;3.20;;;1.07;;
47367;SDS011;34646;47.964;7.982;2024-03-29T16:38:52;16.10;;;2.40;;
47367;SDS011;34646;47.964;7.982;2024-03-29T16:44:53;6.40;;;0.88;;
47367;SDS011;34646;47.964;7.982;2024-03-29T16:50:54;4.60;;;0.90;;
47367;SDS011;34646;47.964;7.982;2024-03-29T16:56:55;7.47;;;0.95;;
47367;SDS011;34646;47.964;7.982;2024-03-29T17:02:56;9.77;;;1.13;;
47367;SDS011;34646;47.964;7.982;2024-03-29T17:08:58;11.20;;;1.10;;
47367;SDS011;34646;47.964;7.982;2024-03-29T17:14:59;12.00;;;1.02;;
47367;SDS011;34646;47.964;7.982;2024-03-29T17:27:01;23.15;;;1.45;;
47367;SDS011;34646;47.964;7.982;2024-03-29T17:33:02;30.50;;;3.03;;
47367;SDS011;34646;47.964;7.982;2024-03-29T17:39:03;12.57;;;1.02;;
47367;SDS011;34646;47.964;7.982;2024-03-29T17:45:06;3.80;;;0.90;;
47367;SDS011;34646;47.964;7.982;2024-03-29T17:51:07;3.30;;;1.23;;
47367;SDS011;34646;47.964;7.982;2024-03-29T17:57:08;5.95;;;1.15;;
47367;SDS011;34646;47.964;7.982;2024-03-29T18:03:10;8.32;;;1.35;;
47367;SDS011;34646;47.964;7.982;2024-03-29T18:09:10;7.40;;;1.00;;
47367;SDS011;34646;47.964;7.982;2024-03-29T18:15:11;9.80;;;1.23;;
47367;SDS011;34646;47.964;7.982;2024-03-29T18:21:13;6.28;;;1.70;;
47367;SDS011;34646;47.964;7.982;2024-03-29T18:27:14;8.15;;;2.05;;
47367;SDS011;34646;47.964;7.982;2024-03-29T18:33:15;8.17;;;2.27;;
47367;SDS011;34646;47.964;7.982;2024-03-29T18:39:16;9.98;;;2.53;;
47367;SDS011;34646;47.964;7.982;2024-03-29T18:45:18;6.55;;;2.28;;
47367;SDS011;34646;47.964;7.982;2024-03-29T18:51:21;8.15;;;2.03;;
47367;SDS011;34646;47.964;7.982;2024-03-29T18:57:23;4.93;;;1.70;;
47367;SDS011;34646;47.964;7.982;2024-03-29T19:03:24;11.35;;;2.67;;
47367;SDS011;34646;47.964;7.982;2024-03-29T19:09:26;32.72;;;5.20;;
47367;SDS011;34646;47.964;7.982;2024-03-29T19:15:27;22.40;;;6.38;;
47367;SDS011;34646;47.964;7.982;2024-03-29T19:21:28;17.95;;;7.55;;
47367;SDS011;34646;47.964;7.982;2024-03-29T19:27:31;23.02;;;7.95;;
47367;SDS011;34646;47.964;7.982;2024-03-29T19:33:33;24.90;;;8.20;;
47367;SDS011;34646;47.964;7.982;2024-03-29T19:39:34;21.30;;;7.95;;
47367;SDS011;34646;47.964;7.982;2024-03-29T19:45:34;22.83;;;8.57;;
47367;SDS011;34646;47.964;7.982;2024-03-29T19:51:35;26.52;;;8.27;;
47367;SDS011;34646;47.964;7.982;2024-03-29T19:57:36;16.27;;;7.60;;
47367;SDS011;34646;47.964;7.982;2024-03-29T20:03:37;20.48;;;8.35;;
47367;SDS011;34646;47.964;7.982;2024-03-29T20:09:38;19.77;;;8.25;;
47367;SDS011;34646;47.964;7.982;2024-03-29T20:15:42;25.42;;;8.48;;
47367;SDS011;34646;47.964;7.982;2024-03-29T20:21:44;23.42;;;8.32;;
47367;SDS011;34646;47.964;7.982;2024-03-29T20:27:45;30.40;;;9.13;;
47367;SDS011;34646;47.964;7.982;2024-03-29T20:33:46;24.40;;;8.70;;
47367;SDS011;34646;47.964;7.982;2024-03-29T20:39:48;26.20;;;8.80;;
47367;SDS011;34646;47.964;7.982;2024-03-29T20:45:49;18.98;;;7.97;;
47367;SDS011;34646;47.964;7.982;2024-03-29T20:51:50;18.42;;;7.85;;
47367;SDS011;34646;47.964;7.982;2024-03-29T20:57:52;23.10;;;7.53;;
47367;SDS011;34646;47.964;7.982;2024-03-29T21:03:56;16.23;;;7.03;;
47367;SDS011;34646;47.964;7.982;2024-03-29T21:10:15;14.90;;;6.68;;
47367;SDS011;34646;47.964;7.982;2024-03-29T21:16:16;18.15;;;6.95;;
47367;SDS011;34646;47.964;7.982;2024-03-29T21:22:17;16.85;;;6.32;;
47367;SDS011;34646;47.964;7.982;2024-03-29T21:28:18;19.70;;;7.75;;
47367;SDS011;34646;47.964;7.982;2024-03-29T21:34:19;20.02;;;7.25;;
47367;SDS011;34646;47.964;7.982;2024-03-29T21:40:20;16.67;;;6.97;;
47367;SDS011;34646;47.964;7.982;2024-03-29T21:46:22;17.55;;;6.78;;
47367;SDS011;34646;47.964;7.982;2024-03-29T21:52:23;14.68;;;5.85;;
47367;SDS011;34646;47.964;7.982;2024-03-29T21:58:24;15.32;;;6.25;;
47367;SDS011;34646;47.964;7.982;2024-03-29T22:04:25;10.73;;;5.78;;
47367;SDS011;34646;47.964;7.982;2024-03-29T22:10:26;11.18;;;6.05;;
47367;SDS011;34646;47.964;7.982;2024-03-29T22:16:27;16.23;;;5.85;;
47367;SDS011;34646;47.964;7.982;2024-03-29T22:22:28;13.27;;;5.85;;
47367;SDS011;34646;47.964;7.982;2024-03-29T22:28:29;14.80;;;5.43;;
47367;SDS011;34646;47.964;7.982;2024-03-29T22:34:30;16.88;;;6.30;;
47367;SDS011;34646;47.964;7.982;2024-03-29T22:40:31;15.27;;;6.38;;
47367;SDS011;34646;47.964;7.982;2024-03-29T22:46:32;15.52;;;5.80;;
47367;SDS011;34646;47.964;7.982;2024-03-29T22:52:33;12.90;;;4.90;;
47367;SDS011;34646;47.964;7.982;2024-03-29T22:58:34;13.63;;;6.40;;
47367;SDS011;34646;47.964;7.982;2024-03-29T23:04:35;12.13;;;5.50;;
47367;SDS011;34646;47.964;7.982;2024-03-29T23:10:36;12.43;;;5.82;;
47367;SDS011;34646;47.964;7.982;2024-03-29T23:16:37;18.20;;;6.07;;
47367;SDS011;34646;47.964;7.982;2024-03-29T23:22:38;13.00;;;6.00;;
47367;SDS011;34646;47.964;7.982;2024-03-29T23:28:39;13.60;;;5.97;;
47367;SDS011;34646;47.964;7.982;2024-03-29T23:34:41;11.27;;;5.05;;
47367;SDS011;34646;47.964;7.982;2024-03-29T23:40:42;13.07;;;5.97;;
47367;SDS011;34646;47.964;7.982;2024-03-29T23:46:53;11.82;;;5.28;;
47367;SDS011;34646;47.964;7.982;2024-03-29T23:52:54;13.67;;;5.63;;
47367;SDS011;34646;47.964;7.982;2024-03-29T23:58:55;12.15;;;5.75;;
